Time;durP1;ratioP1;P1;durP2;ratioP2;P2;SDS_P1;SDS_P2;PMS_P1;PMS_P2;Temp;Humidity;BMP_temperature;BMP_pressure;BME280_temperature;BME280_humidity;BME280_pressure;Samples;Min_cycle;Max_cycle;Signal;HPM_P1;HPM_P2
2022/07/11 00:00:12;;;;;;;6.20;4.23;;;16.00;99.90;;;;;;4997860;28;20480;-81
2022/07/11 00:02:40;;;;;;;5.00;4.50;;;16.00;99.90;;;;;;4998915;28;20968;-81
2022/07/11 00:05:10;;;;;;;7.40;4.47;;;15.90;99.90;;;;;;4998080;28;20946;-78
2022/07/11 00:07:38;;;;;;;5.17;4.60;;;15.90;99.90;;;;;;4998475;28;20447;-81
2022/07/11 00:10:07;;;;;;;4.93;4.37;;;15.90;99.90;;;;;;4997376;28;20483;-80
2022/07/11 00:12:36;;;;;;;6.17;5.10;;;15.90;99.90;;;;;;4998271;28;20928;-80
2022/07/11 00:15:06;;;;;;;5.80;4.03;;;15.90;99.90;;;;;;4996903;28;20958;-79
2022/07/11 00:17:35;;;;;;;6.13;4.67;;;15.90;99.90;;;;;;4998397;28;20448;-80
2022/07/11 00:20:03;;;;;;;6.13;4.30;;;15.90;99.90;;;;;;4996683;28;20472;-80
2022/07/11 00:22:32;;;;;;;7.37;4.57;;;15.90;99.90;;;;;;4996696;28;20420;-80
2022/07/11 00:25:00;;;;;;;4.90;4.50;;;15.90;99.90;;;;;;4996486;28;20459;-80
2022/07/11 00:27:28;;;;;;;8.10;4.77;;;15.90;99.90;;;;;;4997489;28;20452;-79
2022/07/11 00:29:56;;;;;;;6.03;4.70;;;15.90;99.90;;;;;;4998113;28;20419;-79
2022/07/11 00:32:26;;;;;;;6.70;4.80;;;15.90;99.90;;;;;;4995871;28;20444;-78
2022/07/11 00:34:54;;;;;;;6.70;4.57;;;15.90;99.90;;;;;;4997873;28;20449;-79
2022/07/11 00:37:22;;;;;;;5.37;4.50;;;15.90;99.90;;;;;;4995718;28;20428;-79
2022/07/11 00:39:50;;;;;;;7.00;4.87;;;15.90;99.90;;;;;;4995791;28;20463;-78
2022/07/11 00:42:19;;;;;;;5.50;4.90;;;15.90;99.90;;;;;;4996610;28;20453;-77
2022/07/11 00:44:47;;;;;;;7.20;5.17;;;15.90;99.90;;;;;;4995520;28;20435;-79
2022/07/11 00:47:15;;;;;;;6.03;4.40;;;15.90;99.90;;;;;;4995327;28;20448;-79
2022/07/11 00:49:46;;;;;;;6.27;4.60;;;15.90;99.90;;;;;;4996211;28;21042;-79
2022/07/11 00:52:14;;;;;;;5.33;4.80;;;15.90;99.90;;;;;;4995089;28;20453;-78
2022/07/11 00:54:42;;;;;;;5.53;5.03;;;15.90;99.90;;;;;;4996314;28;20427;-80
2022/07/11 00:57:11;;;;;;;12.60;4.87;;;15.90;99.90;;;;;;4995221;28;20517;-80
2022/07/11 00:59:39;;;;;;;5.47;4.97;;;15.90;99.90;;;;;;4995319;28;21004;-78
2022/07/11 01:02:08;;;;;;;5.53;5.00;;;15.90;99.90;;;;;;4994683;28;20455;-78
2022/07/11 01:04:36;;;;;;;8.97;6.23;;;15.90;99.90;;;;;;4996237;28;20978;-79
2022/07/11 01:07:06;;;;;;;5.83;4.97;;;15.90;99.90;;;;;;4994965;28;20431;-78
2022/07/11 01:09:34;;;;;;;5.03;4.43;;;15.90;99.90;;;;;;4994920;28;20428;-79
2022/07/11 01:12:02;;;;;;;7.70;5.30;;;15.90;99.90;;;;;;4995452;28;20480;-78
2022/07/11 01:14:31;;;;;;;5.77;4.20;;;15.90;99.90;;;;;;4994840;28;20451;-79
2022/07/11 01:16:59;;;;;;;5.77;4.67;;;15.90;99.90;;;;;;4995168;28;20579;-77
2022/07/11 01:19:27;;;;;;;11.80;5.10;;;15.90;99.90;;;;;;4995622;28;20444;-80
2022/07/11 01:21:59;;;;;;;5.03;4.33;;;15.90;99.90;;;;;;4994797;28;20492;-79
2022/07/11 01:24:28;;;;;;;6.53;4.97;;;15.90;99.90;;;;;;4996140;28;20479;-77
2022/07/11 01:26:57;;;;;;;9.63;5.10;;;15.90;99.90;;;;;;4994564;28;20564;-80
2022/07/11 01:29:25;;;;;;;6.33;5.23;;;15.90;99.90;;;;;;4994530;28;20447;-79
2022/07/11 01:31:53;;;;;;;8.03;5.13;;;15.80;99.90;;;;;;4994604;28;20451;-79
2022/07/11 01:34:21;;;;;;;6.93;5.23;;;15.80;99.90;;;;;;4996007;28;20419;-78
2022/07/11 01:36:49;;;;;;;6.10;4.80;;;15.80;99.90;;;;;;4995686;28;20465;-78
2022/07/11 01:39:17;;;;;;;6.10;5.50;;;15.80;99.90;;;;;;4995753;28;20407;-79
2022/07/11 01:41:47;;;;;;;5.17;4.43;;;15.80;99.90;;;;;;4995501;28;20854;-78
2022/07/11 01:44:15;;;;;;;7.60;5.13;;;15.80;99.90;;;;;;4994874;28;20455;-78
2022/07/11 01:46:43;;;;;;;7.63;5.10;;;15.80;99.90;;;;;;4995283;28;20438;-78
2022/07/11 01:49:12;;;;;;;5.83;5.10;;;15.80;99.90;;;;;;4995422;28;20525;-79
2022/07/11 01:51:40;;;;;;;9.60;5.87;;;15.80;99.90;;;;;;4994124;28;20973;-79
2022/07/11 01:54:08;;;;;;;6.03;5.23;;;15.80;99.90;;;;;;4993940;28;20450;-79
2022/07/11 01:56:36;;;;;;;5.13;4.43;;;15.80;99.90;;;;;;4995891;28;20507;-79
2022/07/11 01:59:05;;;;;;;7.90;6.60;;;15.80;99.90;;;;;;4993945;28;20453;-79
2022/07/11 02:01:34;;;;;;;5.63;4.57;;;15.80;99.90;;;;;;4992897;28;20471;-79
2022/07/11 02:04:02;;;;;;;6.17;5.03;;;15.80;99.90;;;;;;4995490;28;20468;-78
2022/07/11 02:06:30;;;;;;;11.17;5.13;;;15.80;99.90;;;;;;4995539;28;20885;-78
2022/07/11 02:08:58;;;;;;;5.93;5.30;;;15.80;99.90;;;;;;4993930;28;20427;-78
2022/07/11 02:11:26;;;;;;;8.00;5.40;;;15.80;99.90;;;;;;4993681;28;20559;-78
2022/07/11 02:13:54;;;;;;;7.33;5.20;;;15.80;99.90;;;;;;4993682;28;20477;-78
2022/07/11 02:16:24;;;;;;;5.63;4.97;;;15.80;99.90;;;;;;4993867;28;20500;-79
2022/07/11 02:18:52;;;;;;;7.00;4.80;;;15.80;99.90;;;;;;4994912;28;20526;-79
2022/07/11 02:21:20;;;;;;;7.20;4.40;;;15.80;99.90;;;;;;4995266;28;20462;-79
2022/07/11 02:23:49;;;;;;;5.77;4.70;;;15.80;99.90;;;;;;4994878;28;20415;-80
2022/07/11 02:26:17;;;;;;;4.93;4.20;;;15.80;99.90;;;;;;4993875;28;20448;-78
2022/07/11 02:28:46;;;;;;;5.67;4.83;;;15.80;99.90;;;;;;4993840;28;20424;-79
2022/07/11 02:31:15;;;;;;;5.53;4.90;;;15.70;99.90;;;;;;4993832;28;20468;-78
2022/07/11 02:33:44;;;;;;;5.50;4.17;;;15.80;99.90;;;;;;4993349;28;20790;-78
2022/07/11 02:36:14;;;;;;;11.37;5.87;;;15.80;99.90;;;;;;4993306;28;20442;-78
2022/07/11 02:38:43;;;;;;;6.00;5.20;;;15.70;99.90;;;;;;4993325;28;20468;-78
2022/07/11 02:41:12;;;;;;;5.53;4.10;;;15.70;99.90;;;;;;4992623;28;20983;-78
2022/07/11 02:43:40;;;;;;;4.93;4.43;;;15.70;99.90;;;;;;4992990;28;20468;-78
2022/07/11 02:46:09;;;;;;;5.90;5.00;;;15.70;99.90;;;;;;4993045;28;20476;-79
2022/07/11 02:48:37;;;;;;;5.60;4.60;;;15.70;99.90;;;;;;4994617;28;20419;-77
2022/07/11 02:51:07;;;;;;;6.30;4.40;;;15.70;99.90;;;;;;4993948;28;20563;-78
2022/07/11 02:53:35;;;;;;;6.53;4.30;;;15.70;99.90;;;;;;4993898;28;20479;-78
2022/07/11 02:56:03;;;;;;;9.77;4.77;;;15.70;99.90;;;;;;4994959;28;20420;-78
2022/07/11 02:58:32;;;;;;;10.47;5.00;;;15.70;99.90;;;;;;4996197;28;20962;-78
2022/07/11 03:01:00;;;;;;;5.77;4.40;;;15.70;99.90;;;;;;4994662;28;20546;-77
2022/07/11 03:03:29;;;;;;;8.13;4.10;;;15.60;99.90;;;;;;4995180;28;20449;-78
2022/07/11 03:05:57;;;;;;;5.77;4.10;;;15.60;99.90;;;;;;4994514;28;20451;-80
2022/07/11 03:08:27;;;;;;;7.17;4.23;;;15.60;99.90;;;;;;4996184;28;20459;-79
2022/07/11 03:10:55;;;;;;;5.90;4.07;;;15.60;99.90;;;;;;4997073;28;21044;-79
2022/07/11 03:13:23;;;;;;;6.83;4.70;;;15.60;99.90;;;;;;5000213;28;21003;-79
2022/07/11 03:15:51;;;;;;;5.30;4.17;;;15.60;99.90;;;;;;5001828;28;20445;-80
2022/07/11 03:18:20;;;;;;;5.80;4.47;;;15.60;99.90;;;;;;5000376;28;20481;-79
2022/07/11 03:20:48;;;;;;;5.37;4.30;;;15.60;99.90;;;;;;5000321;28;20435;-79
2022/07/11 03:23:16;;;;;;;8.60;4.10;;;15.60;99.90;;;;;;4999313;28;20987;-79
2022/07/11 03:25:46;;;;;;;4.97;4.47;;;15.60;99.90;;;;;;5000759;28;20981;-80
2022/07/11 03:28:14;;;;;;;6.00;4.20;;;15.60;99.90;;;;;;5000023;28;20804;-80
2022/07/11 03:30:42;;;;;;;6.10;3.57;;;15.50;99.90;;;;;;4998276;28;20472;-80
2022/07/11 03:33:10;;;;;;;4.23;3.83;;;15.50;99.90;;;;;;4998445;28;20441;-80
2022/07/11 03:35:40;;;;;;;4.10;3.23;;;15.50;99.90;;;;;;4999750;28;20507;-79
2022/07/11 03:38:09;;;;;;;4.33;3.37;;;15.50;99.90;;;;;;4997925;28;20427;-78
2022/07/11 03:40:37;;;;;;;4.50;2.40;;;15.50;99.90;;;;;;4999055;28;20446;-78
2022/07/11 03:43:07;;;;;;;4.80;2.40;;;15.50;99.90;;;;;;4997818;28;20503;-78
2022/07/11 03:45:36;;;;;;;2.67;1.90;;;15.50;99.90;;;;;;4998266;28;20555;-80
2022/07/11 03:48:05;;;;;;;3.57;1.83;;;15.50;99.90;;;;;;4999185;28;20445;-78
2022/07/11 03:50:34;;;;;;;2.37;1.90;;;15.50;99.90;;;;;;5000447;28;20471;-80
2022/07/11 03:53:02;;;;;;;4.17;2.07;;;15.50;99.90;;;;;;4998095;28;20956;-79
2022/07/11 03:55:32;;;;;;;2.37;1.73;;;15.50;99.90;;;;;;4997685;28;20452;-80
2022/07/11 03:58:01;;;;;;;2.93;1.80;;;15.50;99.90;;;;;;4999480;28;20423;-79
2022/07/11 04:00:31;;;;;;;3.00;1.73;;;15.50;99.90;;;;;;4997892;28;20500;-80
2022/07/11 04:02:59;;;;;;;4.03;1.63;;;15.60;99.90;;;;;;4997388;28;20481;-79
2022/07/11 04:05:28;;;;;;;2.43;1.70;;;15.60;99.90;;;;;;4999198;28;20479;-79
2022/07/11 04:07:58;;;;;;;2.80;1.40;;;15.60;99.90;;;;;;4999379;28;20428;-79
2022/07/11 04:10:26;;;;;;;2.27;1.57;;;15.60;99.90;;;;;;4997349;28;20515;-80
2022/07/11 04:12:54;;;;;;;2.93;1.90;;;15.60;99.90;;;;;;4998743;28;20408;-79
2022/07/11 04:15:23;;;;;;;2.50;1.80;;;15.60;99.90;;;;;;4998299;28;20429;-81
2022/07/11 04:17:53;;;;;;;3.23;1.70;;;15.60;99.90;;;;;;4998442;28;20437;-79
2022/07/11 04:20:21;;;;;;;2.40;1.40;;;15.60;99.90;;;;;;4996089;28;20484;-78
2022/07/11 04:22:50;;;;;;;3.10;1.90;;;15.60;99.90;;;;;;4999172;28;20865;-78
2022/07/11 04:25:18;;;;;;;2.60;1.80;;;15.60;99.90;;;;;;4996354;28;20484;-79
2022/07/11 04:27:46;;;;;;;4.17;1.90;;;15.60;99.90;;;;;;4996877;28;20489;-80
2022/07/11 04:30:14;;;;;;;2.40;1.57;;;15.60;99.90;;;;;;4997063;28;20568;-81
2022/07/11 04:32:43;;;;;;;3.90;1.77;;;15.60;99.90;;;;;;4998594;28;20474;-79
2022/07/11 04:35:12;;;;;;;2.93;2.10;;;15.60;99.90;;;;;;4997015;28;20438;-79
2022/07/11 04:37:41;;;;;;;3.67;1.93;;;15.60;99.90;;;;;;4998072;28;20423;-79
2022/07/11 04:40:10;;;;;;;3.20;1.60;;;15.70;99.90;;;;;;4998752;28;20468;-79
2022/07/11 04:42:41;;;;;;;2.77;1.70;;;15.60;99.90;;;;;;4997279;28;20797;-79
2022/07/11 04:45:10;;;;;;;2.07;1.60;;;15.70;99.90;;;;;;4998410;28;20482;-78
2022/07/11 04:47:38;;;;;;;2.80;1.70;;;15.70;99.90;;;;;;4997109;28;20441;-80
2022/07/11 04:50:08;;;;;;;2.73;1.80;;;15.70;99.90;;;;;;4998150;28;21006;-79
2022/07/11 04:52:37;;;;;;;2.80;2.10;;;15.70;99.90;;;;;;4997949;28;20496;-79
2022/07/11 04:55:06;;;;;;;5.50;2.33;;;15.70;99.90;;;;;;4997493;28;20437;-79
2022/07/11 04:57:34;;;;;;;3.90;2.30;;;15.70;99.90;;;;;;4995689;28;20427;-78
2022/07/11 05:00:03;;;;;;;3.47;2.60;;;15.70;99.90;;;;;;4997268;28;20829;-79
2022/07/11 05:02:31;;;;;;;4.90;3.00;;;15.70;99.90;;;;;;4997903;28;20455;-80
2022/07/11 05:05:03;;;;;;;2.93;2.57;;;15.70;99.90;;;;;;4997787;28;20498;-79
2022/07/11 05:07:31;;;;;;;5.17;3.10;;;15.70;99.90;;;;;;4997518;28;20455;-80
2022/07/11 05:10:01;;;;;;;5.27;2.73;;;15.80;99.90;;;;;;4997178;28;20454;-79
2022/07/11 05:12:29;;;;;;;4.43;3.13;;;15.70;99.90;;;;;;4997348;28;20453;-79
2022/07/11 05:14:58;;;;;;;4.30;3.00;;;15.80;99.90;;;;;;4998598;28;20415;-80
2022/07/11 05:17:26;;;;;;;3.47;2.63;;;15.80;99.90;;;;;;4997085;28;20470;-80
2022/07/11 05:19:55;;;;;;;2.77;2.53;;;15.80;99.90;;;;;;4997343;28;20455;-80
2022/07/11 05:22:23;;;;;;;5.03;3.40;;;15.80;99.90;;;;;;4998982;28;20773;-80
2022/07/11 05:24:52;;;;;;;3.80;2.63;;;15.80;99.90;;;;;;4996415;28;20494;-80
2022/07/11 05:27:22;;;;;;;3.63;2.67;;;15.80;99.90;;;;;;4996741;28;20447;-79
2022/07/11 05:29:50;;;;;;;3.67;3.00;;;15.90;99.90;;;;;;4998466;28;20459;-80
2022/07/11 05:32:19;;;;;;;4.63;3.57;;;15.90;99.90;;;;;;4998241;28;20440;-80
2022/07/11 05:34:47;;;;;;;4.27;3.70;;;15.90;99.90;;;;;;4996116;28;20801;-81
2022/07/11 05:37:15;;;;;;;5.33;3.30;;;16.00;99.90;;;;;;4997798;28;20437;-80
2022/07/11 05:39:46;;;;;;;6.20;3.13;;;16.00;99.90;;;;;;4996521;28;20804;-80
2022/07/11 05:42:15;;;;;;;3.40;3.10;;;16.00;99.90;;;;;;4997509;28;20437;-80
2022/07/11 05:44:45;;;;;;;4.00;3.23;;;16.10;99.90;;;;;;4997564;28;20899;-81
2022/07/11 05:47:13;;;;;;;3.60;2.77;;;16.10;99.90;;;;;;4997485;28;20527;-80
2022/07/11 05:49:41;;;;;;;3.37;2.73;;;16.10;99.90;;;;;;4999429;28;20519;-81
2022/07/11 05:52:10;;;;;;;3.57;2.83;;;16.10;99.90;;;;;;4995442;28;20447;-79
2022/07/11 05:54:38;;;;;;;3.10;2.70;;;16.10;99.90;;;;;;4995994;28;20455;-80
2022/07/11 05:57:07;;;;;;;4.23;2.57;;;16.10;99.90;;;;;;4997733;28;20478;-80
2022/07/11 05:59:37;;;;;;;4.33;2.43;;;16.10;99.90;;;;;;4994929;28;20437;-81
2022/07/11 06:02:13;;;;;;;3.13;2.40;;;16.20;99.90;;;;;;4995309;28;20447;-79
2022/07/11 06:04:42;;;;;;;3.13;2.17;;;16.20;99.90;;;;;;4995840;28;20475;-80
2022/07/11 06:07:10;;;;;;;2.17;1.87;;;16.20;99.90;;;;;;4995469;28;20978;-78
2022/07/11 06:09:38;;;;;;;2.20;1.70;;;16.20;99.90;;;;;;4994320;28;20968;-80
2022/07/11 06:12:07;;;;;;;1.80;1.30;;;16.20;99.90;;;;;;4995628;28;20439;-79
2022/07/11 06:14:35;;;;;;;1.73;1.20;;;16.20;99.90;;;;;;4995361;28;20457;-79
2022/07/11 06:17:03;;;;;;;1.70;1.37;;;16.20;99.90;;;;;;4995970;28;20495;-79
2022/07/11 06:19:33;;;;;;;1.90;1.50;;;16.20;99.90;;;;;;4995532;28;20477;-80
2022/07/11 06:22:01;;;;;;;2.30;1.40;;;16.20;99.90;;;;;;4994361;28;20494;-80
2022/07/11 06:24:29;;;;;;;2.57;1.60;;;16.20;99.90;;;;;;4997803;28;20437;-79
2022/07/11 06:27:00;;;;;;;2.13;1.47;;;16.30;99.90;;;;;;4996463;28;20469;-80
2022/07/11 06:29:29;;;;;;;1.93;1.30;;;16.30;99.90;;;;;;4995155;28;20451;-78
2022/07/11 06:31:57;;;;;;;1.70;1.30;;;16.30;99.90;;;;;;4994708;28;20435;-79
2022/07/11 06:34:26;;;;;;;1.70;1.30;;;16.40;99.90;;;;;;4996703;28;20438;-79
2022/07/11 06:36:57;;;;;;;2.03;1.13;;;16.40;99.90;;;;;;4997337;28;20909;-80
2022/07/11 06:39:26;;;;;;;2.53;1.27;;;16.40;99.90;;;;;;4998805;28;20890;-79
2022/07/11 06:41:54;;;;;;;1.70;1.20;;;16.50;99.90;;;;;;4994940;28;20451;-79
2022/07/11 06:44:22;;;;;;;2.67;1.13;;;16.50;99.90;;;;;;4997599;28;20549;-80
2022/07/11 06:47:00;;;;;;;1.63;1.10;;;16.50;99.90;;;;;;4996004;28;20472;-80
2022/07/11 06:49:28;;;;;;;2.60;1.70;;;16.60;99.90;;;;;;5000693;28;20444;-79
2022/07/11 06:51:57;;;;;;;2.77;1.50;;;16.60;99.90;;;;;;4999980;28;20431;-78
2022/07/11 06:54:26;;;;;;;2.47;1.27;;;16.70;99.90;;;;;;4999792;28;20553;-80
2022/07/11 06:56:54;;;;;;;3.10;1.17;;;16.70;99.90;;;;;;4998630;28;20970;-80
2022/07/11 06:59:22;;;;;;;2.27;1.30;;;16.80;99.90;;;;;;5000591;28;20411;-80
2022/07/11 07:01:50;;;;;;;1.80;1.27;;;16.80;99.90;;;;;;4999370;28;20451;-80
2022/07/11 07:04:19;;;;;;;1.70;1.30;;;16.90;99.90;;;;;;4999762;28;20568;-80
2022/07/11 07:06:47;;;;;;;1.70;1.30;;;16.90;99.90;;;;;;4999585;28;21013;-80
2022/07/11 07:09:16;;;;;;;3.73;2.20;;;16.90;99.90;;;;;;5000925;28;20521;-80
2022/07/11 07:11:45;;;;;;;1.90;1.63;;;16.90;99.90;;;;;;5000462;28;20805;-79
2022/07/11 07:14:13;;;;;;;2.40;1.57;;;16.90;99.90;;;;;;4999247;28;20419;-80
2022/07/11 07:16:41;;;;;;;2.33;1.30;;;16.90;99.90;;;;;;5000158;28;20451;-80
2022/07/11 07:19:09;;;;;;;1.87;1.27;;;16.90;99.90;;;;;;4998767;28;20816;-79
2022/07/11 07:21:38;;;;;;;2.07;1.40;;;16.90;99.90;;;;;;4999983;28;20523;-80
2022/07/11 07:24:06;;;;;;;2.27;1.30;;;16.90;99.90;;;;;;4999010;28;20422;-78
2022/07/11 07:26:42;;;;;;;3.07;1.20;;;17.00;99.90;;;;;;5000107;28;20873;-80
2022/07/11 07:29:10;;;;;;;1.97;0.87;;;17.00;99.90;;;;;;4999866;28;20876;-79
2022/07/11 07:31:38;;;;;;;1.23;0.90;;;17.10;99.90;;;;;;4999684;28;20480;-81
2022/07/11 07:34:08;;;;;;;3.20;0.90;;;17.10;99.90;;;;;;4998266;28;20445;-80
2022/07/11 07:36:36;;;;;;;5.67;1.30;;;17.10;99.90;;;;;;4999857;28;20795;-80
2022/07/11 07:39:05;;;;;;;2.73;1.87;;;17.10;99.90;;;;;;4997857;28;20956;-81
2022/07/11 07:41:33;;;;;;;1.40;0.90;;;17.20;99.90;;;;;;4999100;28;20468;-79
2022/07/11 07:44:03;;;;;;;1.80;1.00;;;17.20;99.90;;;;;;4998824;28;20423;-80
2022/07/11 07:46:31;;;;;;;1.73;1.10;;;17.20;99.90;;;;;;4997619;28;20431;-79
2022/07/11 07:49:00;;;;;;;1.27;0.70;;;17.20;99.90;;;;;;4998042;28;20789;-80
2022/07/11 07:51:28;;;;;;;1.53;0.80;;;17.30;99.90;;;;;;4997684;28;20469;-82
2022/07/11 07:53:56;;;;;;;2.10;0.80;;;17.30;99.90;;;;;;4997502;28;20432;-80
2022/07/11 07:56:24;;;;;;;1.77;0.70;;;17.30;99.90;;;;;;4999574;28;20415;-81
2022/07/11 07:58:52;;;;;;;2.20;0.90;;;17.40;99.90;;;;;;4998979;28;20516;-78
2022/07/11 08:01:36;;;;;;;1.70;0.93;;;17.40;99.90;;;;;;4998819;28;20500;-80
2022/07/11 08:04:06;;;;;;;1.93;0.70;;;17.50;99.90;;;;;;4997326;28;20451;-82
2022/07/11 08:06:37;;;;;;;1.93;0.60;;;17.50;99.90;;;;;;4996493;28;21041;-79
2022/07/11 08:09:06;;;;;;;1.50;0.73;;;17.50;99.90;;;;;;4997129;28;20461;-80
2022/07/11 08:11:35;;;;;;;1.57;0.70;;;17.50;99.90;;;;;;4996499;28;20435;-81
2022/07/11 08:14:07;;;;;;;1.40;0.60;;;17.50;99.90;;;;;;4998230;28;20407;-80
2022/07/11 08:16:38;;;;;;;1.43;0.73;;;17.50;99.90;;;;;;4997541;28;20427;-80
2022/07/11 08:19:07;;;;;;;1.77;0.70;;;17.60;99.90;;;;;;4996715;28;20914;-80
2022/07/11 08:21:35;;;;;;;2.17;0.90;;;17.60;99.90;;;;;;4997043;28;20523;-81
2022/07/11 08:24:04;;;;;;;1.63;0.70;;;17.70;99.90;;;;;;4998180;28;20437;-79
2022/07/11 08:26:33;;;;;;;1.80;0.90;;;17.70;99.90;;;;;;4996401;28;20543;-79
2022/07/11 08:29:02;;;;;;;1.57;0.60;;;17.80;99.90;;;;;;4996761;28;20476;-80
2022/07/11 08:31:31;;;;;;;2.67;0.90;;;17.90;99.90;;;;;;4996336;28;20473;-77
2022/07/11 08:34:02;;;;;;;1.47;0.80;;;17.90;99.90;;;;;;4996013;28;20460;-80
2022/07/11 08:36:34;;;;;;;1.20;0.60;;;17.90;99.90;;;;;;4997213;28;20423;-77
2022/07/11 08:39:03;;;;;;;2.63;0.80;;;18.00;99.90;;;;;;4996819;28;20415;-79
2022/07/11 08:41:32;;;;;;;1.40;0.73;;;18.00;99.90;;;;;;4995962;28;20473;-82
2022/07/11 08:44:01;;;;;;;1.20;0.70;;;18.00;99.90;;;;;;4996266;28;20465;-79
2022/07/11 08:46:30;;;;;;;1.40;0.80;;;18.10;99.90;;;;;;4997946;28;20437;-80
2022/07/11 08:49:03;;;;;;;1.63;1.00;;;18.10;99.90;;;;;;4996193;28;20500;-80
2022/07/11 08:51:31;;;;;;;1.60;0.90;;;18.10;99.90;;;;;;4996268;28;20498;-80
2022/07/11 08:54:00;;;;;;;1.43;0.90;;;18.00;99.90;;;;;;4995740;28;20428;-80
2022/07/11 08:56:29;;;;;;;2.70;0.70;;;18.00;99.90;;;;;;4997250;28;20411;-81
2022/07/11 08:58:59;;;;;;;2.30;0.90;;;18.00;99.90;;;;;;4997853;28;20825;-81
2022/07/11 09:01:30;;;;;;;1.50;0.80;;;18.00;99.90;;;;;;4996139;28;20484;-81
2022/07/11 09:03:59;;;;;;;2.53;0.80;;;18.10;99.90;;;;;;4996057;28;20460;-80
2022/07/11 09:06:30;;;;;;;1.30;0.80;;;18.10;99.90;;;;;;4997832;28;20921;-80
2022/07/11 09:09:00;;;;;;;2.70;0.97;;;18.20;99.90;;;;;;4996410;28;20814;-80
2022/07/11 09:11:29;;;;;;;1.77;0.70;;;18.30;99.90;;;;;;4996807;28;20499;-80
2022/07/11 09:13:58;;;;;;;1.90;0.83;;;18.40;99.90;;;;;;4996320;28;20480;-80
2022/07/11 09:16:28;;;;;;;1.50;0.67;;;18.50;99.90;;;;;;4995971;28;20503;-80
2022/07/11 09:18:59;;;;;;;1.63;0.93;;;18.50;99.90;;;;;;4997090;28;20520;-81
2022/07/11 09:26:59;;;;;;;1.70;1.40;;;18.50;99.90;;;;;;4997041;28;20433;-79
2022/07/11 09:29:27;;;;;;;1.43;0.93;;;18.40;99.90;;;;;;4995558;28;20483;-81
2022/07/11 09:31:56;;;;;;;1.80;1.40;;;18.40;99.90;;;;;;4994854;28;20447;-81
2022/07/11 09:34:26;;;;;;;2.20;1.60;;;18.40;99.90;;;;;;4995481;28;20457;-80
2022/07/11 09:36:57;;;;;;;2.00;1.20;;;18.50;99.90;;;;;;4995333;28;20544;-80
2022/07/11 09:39:28;;;;;;;1.77;1.10;;;18.50;99.90;;;;;;4995077;28;20961;-78
2022/07/11 09:41:56;;;;;;;2.03;1.17;;;18.60;99.90;;;;;;4995383;28;20508;-80
2022/07/11 09:44:27;;;;;;;2.23;1.40;;;18.70;99.90;;;;;;4994880;28;20468;-81
2022/07/11 09:46:57;;;;;;;1.80;0.97;;;18.70;99.90;;;;;;4996804;28;20424;-82
2022/07/11 09:49:33;;;;;;;1.40;0.90;;;18.80;99.90;;;;;;4994834;28;20450;-81
2022/07/11 09:52:10;;;;;;;1.43;0.87;;;18.80;99.90;;;;;;4994847;28;20511;-80
2022/07/11 09:54:59;;;;;;;1.97;0.90;;;18.80;99.90;;;;;;4996956;28;20425;-80
2022/07/11 09:57:31;;;;;;;2.10;1.10;;;18.80;99.90;;;;;;4995523;28;20511;-82
2022/07/11 10:00:00;;;;;;;1.80;1.50;;;18.80;99.90;;;;;;4996128;28;20445;-81
2022/07/11 10:02:31;;;;;;;1.20;0.67;;;18.80;99.90;;;;;;4996659;28;20421;-80
2022/07/11 10:05:01;;;;;;;2.57;0.70;;;18.80;99.90;;;;;;4998373;28;20449;-82
2022/07/11 10:07:31;;;;;;;1.37;0.60;;;18.90;99.90;;;;;;4997791;28;20463;-81
2022/07/11 10:10:00;;;;;;;1.70;0.60;;;18.90;99.90;;;;;;4997313;28;20486;-80
2022/07/11 10:12:31;;;;;;;1.50;0.73;;;19.00;99.90;;;;;;4996228;28;20448;-83
2022/07/11 10:15:03;;;;;;;1.30;0.80;;;19.00;99.90;;;;;;4995450;28;20456;-82
2022/07/11 10:17:49;;;;;;;1.40;0.80;;;19.20;99.90;;;;;;4997269;28;20421;-81
2022/07/11 10:20:26;;;;;;;1.20;0.77;;;19.20;99.90;;;;;;4995744;28;20469;-80
2022/07/11 10:23:05;;;;;;;1.30;0.60;;;19.30;99.90;;;;;;4997753;28;20954;-80
2022/07/11 10:25:40;;;;;;;1.20;0.70;;;19.20;99.90;;;;;;4999099;28;20854;-81
2022/07/11 10:28:17;;;;;;;1.43;0.80;;;19.20;99.90;;;;;;5000108;28;20500;-80
2022/07/11 10:30:47;;;;;;;2.37;0.53;;;19.10;99.90;;;;;;4999225;28;20574;-82
2022/07/11 10:33:16;;;;;;;1.30;0.60;;;19.20;99.90;;;;;;5000409;28;20503;-81
2022/07/11 10:35:45;;;;;;;1.20;0.53;;;19.10;99.90;;;;;;5000521;28;20447;-82
2022/07/11 10:38:15;;;;;;;1.50;0.83;;;19.10;99.90;;;;;;4998857;28;20491;-81
2022/07/11 10:40:54;;;;;;;1.20;0.57;;;19.10;99.90;;;;;;4998958;28;20480;-81
2022/07/11 10:43:41;;;;;;;1.20;0.60;;;19.00;99.90;;;;;;4999450;28;20488;-80
2022/07/11 10:46:11;;;;;;;1.60;0.70;;;19.00;99.90;;;;;;4997365;28;20969;-80
2022/07/11 10:49:00;;;;;;;2.03;0.80;;;19.00;99.90;;;;;;4998531;28;20902;-82
2022/07/11 10:51:37;;;;;;;1.27;0.80;;;19.10;99.90;;;;;;4999002;28;20460;-80
2022/07/11 10:54:39;;;;;;;2.17;1.30;;;19.10;99.90;;;;;;4997953;28;20483;-82
2022/07/11 10:57:17;;;;;;;2.90;1.30;;;19.10;99.90;;;;;;4997412;28;20473;-81
2022/07/11 11:00:02;;;;;;;1.40;0.80;;;19.10;99.90;;;;;;4997536;28;20542;-80
2022/07/11 11:02:31;;;;;;;1.30;0.70;;;19.10;99.90;;;;;;4997360;28;20451;-80
2022/07/11 11:05:00;;;;;;;1.50;0.90;;;19.20;99.90;;;;;;4997682;28;20453;-82
2022/07/11 11:07:30;;;;;;;1.33;0.90;;;19.20;99.90;;;;;;4997023;28;20455;-82
2022/07/11 11:10:01;;;;;;;1.40;1.10;;;19.30;99.90;;;;;;4996950;28;20468;-80
2022/07/11 11:13:07;;;;;;;1.20;0.70;;;19.30;99.90;;;;;;4996921;28;20449;-80
2022/07/11 11:15:39;;;;;;;2.50;1.37;;;19.40;99.90;;;;;;4998502;28;20445;-81
2022/07/11 11:18:35;;;;;;;1.47;1.30;;;19.50;99.90;;;;;;4996982;28;20943;-80
2022/07/11 11:21:25;;;;;;;1.83;1.40;;;19.50;99.90;;;;;;4997354;28;20559;-80
2022/07/11 11:24:07;;;;;;;1.83;1.10;;;19.60;99.90;;;;;;4997283;28;20437;-81
2022/07/11 11:26:52;;;;;;;2.17;1.03;;;19.70;99.90;;;;;;4998674;28;20484;-80
2022/07/11 11:29:24;;;;;;;1.40;0.77;;;19.80;99.90;;;;;;4996987;28;20464;-80
2022/07/11 11:31:58;;;;;;;1.77;0.83;;;19.80;99.90;;;;;;5001064;28;20482;-80
2022/07/11 11:34:27;;;;;;;1.20;0.60;;;19.90;99.90;;;;;;4999476;28;20467;-80
2022/07/11 11:37:01;;;;;;;1.30;0.80;;;19.90;99.90;;;;;;4997665;28;20503;-80
2022/07/11 11:39:32;;;;;;;3.40;0.90;;;19.90;99.90;;;;;;4996781;28;20621;-82
2022/07/11 11:44:57;;;;;;;1.97;0.83;;;19.80;99.90;;;;;;5155600;27;20904;-80
2022/07/11 11:47:25;;;;;;;1.40;0.87;;;19.80;99.90;;;;;;5154366;27;20438;-80
2022/07/11 11:49:53;;;;;;;1.67;0.87;;;19.70;99.90;;;;;;5153405;27;20476;-80
2022/07/11 11:52:23;;;;;;;1.50;0.93;;;19.70;99.90;;;;;;5132789;28;20461;-81
2022/07/11 11:54:53;;;;;;;1.20;0.70;;;19.70;99.90;;;;;;5134840;28;20851;-79
2022/07/11 11:57:23;;;;;;;2.53;0.97;;;19.80;99.90;;;;;;5133603;28;20456;-79
2022/07/11 11:59:53;;;;;;;1.57;0.87;;;19.80;99.90;;;;;;5132444;28;20530;-81
2022/07/11 12:02:29;;;;;;;2.03;0.80;;;19.80;99.90;;;;;;5132375;28;20445;-81
2022/07/11 12:04:59;;;;;;;1.33;0.80;;;19.80;99.90;;;;;;5132519;28;20430;-81
2022/07/11 12:07:29;;;;;;;1.50;0.80;;;19.90;99.90;;;;;;5133985;28;20505;-81
2022/07/11 12:10:03;;;;;;;1.33;0.80;;;20.00;99.90;;;;;;5132524;27;20465;-80
2022/07/11 12:12:44;;;;;;;1.77;0.90;;;20.00;99.90;;;;;;5132394;28;20509;-80
2022/07/11 12:15:34;;;;;;;1.63;0.90;;;20.10;99.90;;;;;;5133734;28;20654;-81
2022/07/11 12:18:05;;;;;;;1.50;1.00;;;20.10;99.90;;;;;;5134065;27;20431;-79
2022/07/11 12:20:39;;;;;;;1.50;0.90;;;20.20;99.90;;;;;;5132899;27;20869;-82
2022/07/11 12:23:09;;;;;;;2.33;1.03;;;20.30;99.90;;;;;;5133900;28;20503;-81
2022/07/11 12:25:48;;;;;;;1.50;0.90;;;20.40;99.90;;;;;;5133379;28;20418;-81
2022/07/11 12:28:16;;;;;;;1.63;0.70;;;20.50;99.90;;;;;;5133538;28;20495;-80
2022/07/11 12:30:46;;;;;;;1.63;1.20;;;20.50;99.90;;;;;;5133315;27;20458;-82
2022/07/11 12:33:15;;;;;;;1.63;0.60;;;20.60;99.90;;;;;;5131984;28;20470;-80
2022/07/11 12:35:56;;;;;;;2.00;0.80;;;20.60;99.90;;;;;;5133392;28;20431;-79
2022/07/11 12:38:24;;;;;;;1.20;0.70;;;20.70;99.90;;;;;;5132016;28;20977;-81
2022/07/11 12:41:04;;;;;;;2.50;0.90;;;20.70;99.90;;;;;;5133424;27;20473;-80
2022/07/11 12:46:34;;;;;;;2.20;0.90;;;20.80;99.90;;;;;;5132207;28;20537;-81
2022/07/11 12:49:03;;;;;;;1.30;0.63;;;20.90;99.90;;;;;;5131781;28;20920;-81
2022/07/11 12:51:34;;;;;;;1.40;0.90;;;20.90;99.90;;;;;;5132907;27;20460;-79
2022/07/11 12:54:05;;;;;;;1.30;0.63;;;20.90;99.90;;;;;;5131818;28;20420;-80
2022/07/11 12:56:33;;;;;;;3.63;0.80;;;20.90;99.90;;;;;;5119181;28;20519;-81
2022/07/11 12:59:02;;;;;;;1.40;0.60;;;21.00;99.90;;;;;;5117869;28;20451;-80
2022/07/11 13:01:55;;;;;;;3.27;1.47;;;21.00;99.90;;;;;;5118015;28;20466;-79
2022/07/11 13:04:36;;;;;;;2.67;1.00;;;21.00;99.90;;;;;;5117474;28;20463;-81
2022/07/11 13:10:11;;;;;;;1.30;0.77;;;21.00;99.90;;;;;;5117626;28;20443;-78
2022/07/11 13:12:39;;;;;;;2.23;0.83;;;21.00;99.90;;;;;;5118813;28;20514;-81
2022/07/11 13:15:12;;;;;;;2.27;1.00;;;21.00;99.90;;;;;;5119559;28;20432;-81